createdAt,value
2022-10-19T00:01:14.433Z,100560.78
2022-10-19T00:03:44.210Z,100556.44
2022-10-19T00:06:25.974Z,100550.73
2022-10-19T00:08:56.738Z,100555.27
2022-10-19T00:11:25.112Z,100556.86
2022-10-19T00:13:54.740Z,100558.66
2022-10-19T00:16:23.634Z,100558.20
2022-10-19T00:18:51.269Z,100558.83
2022-10-19T00:21:19.696Z,100556.88
2022-10-19T00:23:48.349Z,100556.48
2022-10-19T00:26:16.006Z,100557.64
2022-10-19T00:28:44.232Z,100558.22
2022-10-19T00:31:15.871Z,100551.84
2022-10-19T00:33:46.716Z,100555.07
2022-10-19T00:36:21.516Z,100556.94
2022-10-19T00:38:49.438Z,100552.29
2022-10-19T00:41:18.983Z,100548.30
2022-10-19T00:43:54.748Z,100546.55
2022-10-19T00:46:23.298Z,100549.47
2022-10-19T00:48:53.867Z,100551.17
2022-10-19T00:51:23.004Z,100542.11
2022-10-19T00:53:51.028Z,100545.30
2022-10-19T00:56:18.921Z,100546.25
2022-10-19T00:58:47.146Z,100543.11
2022-10-19T01:01:19.379Z,100542.13
2022-10-19T01:03:46.980Z,100546.29
2022-10-19T01:06:17.767Z,100544.07
2022-10-19T01:08:46.319Z,100544.27
2022-10-19T01:11:45.723Z,100540.53
2022-10-19T01:14:45.236Z,100536.11
2022-10-19T01:17:42.520Z,100536.27
2022-10-19T01:20:28.134Z,100530.88
2022-10-19T01:23:25.001Z,100526.60
2022-10-19T01:26:02.579Z,100526.94
2022-10-19T01:28:57.827Z,100529.16
2022-10-19T01:31:45.518Z,100531.77
2022-10-19T01:34:15.539Z,100529.08
2022-10-19T01:36:46.209Z,100532.58
2022-10-19T01:39:23.063Z,100530.68
2022-10-19T01:41:59.115Z,100527.30
2022-10-19T01:44:41.042Z,100523.06
2022-10-19T01:47:17.007Z,100522.60
2022-10-19T01:49:51.161Z,100519.27
2022-10-19T01:52:21.255Z,100516.98
2022-10-19T01:54:52.854Z,100515.42
2022-10-19T01:57:25.501Z,100511.13
2022-10-19T01:59:55.673Z,100503.47
2022-10-19T02:02:26.016Z,100504.83
2022-10-19T02:04:57.312Z,100506.13
2022-10-19T02:07:25.352Z,100504.23
2022-10-19T02:09:52.888Z,100500.31
2022-10-19T02:12:21.603Z,100498.89
2022-10-19T02:14:53.460Z,100501.05
2022-10-19T02:17:27.164Z,100498.98
2022-10-19T02:19:54.697Z,100493.20
2022-10-19T02:22:22.259Z,100493.50
2022-10-19T02:24:49.965Z,100495.23
2022-10-19T02:27:17.684Z,100494.59
2022-10-19T02:29:45.690Z,100491.91
2022-10-19T02:32:13.353Z,100492.00
2022-10-19T02:34:41.658Z,100492.56
2022-10-19T02:37:09.431Z,100491.04
2022-10-19T02:39:39.012Z,100490.77
2022-10-19T02:42:18.108Z,100484.86
2022-10-19T02:44:58.525Z,100476.36
2022-10-19T02:47:33.283Z,100466.73
2022-10-19T02:50:04.874Z,100472.84
2022-10-19T02:52:32.516Z,100476.55
2022-10-19T02:55:00.023Z,100483.35
2022-10-19T02:57:27.720Z,100481.50
2022-10-19T02:59:55.227Z,100482.80
2022-10-19T03:02:22.730Z,100481.05
2022-10-19T03:04:50.492Z,100482.84
2022-10-19T03:07:20.221Z,100481.95
2022-10-19T03:09:48.553Z,100478.48
2022-10-19T03:12:16.441Z,100477.17
2022-10-19T03:14:44.323Z,100478.59
2022-10-19T03:17:11.889Z,100478.75
2022-10-19T03:19:39.467Z,100476.27
2022-10-19T03:22:07.362Z,100475.46
2022-10-19T03:24:34.906Z,100469.02
2022-10-19T03:27:02.483Z,100458.52
2022-10-19T03:29:30.064Z,100458.77
2022-10-19T03:31:57.689Z,100459.90
2022-10-19T03:34:25.212Z,100456.52
2022-10-19T03:36:52.816Z,100458.10
2022-10-19T03:39:20.312Z,100454.39
2022-10-19T03:41:47.879Z,100457.36
2022-10-19T03:44:15.390Z,100464.98
2022-10-19T03:46:42.947Z,100466.31
2022-10-19T03:49:11.432Z,100472.75
2022-10-19T03:51:38.978Z,100481.73
2022-10-19T03:54:08.561Z,100477.20
2022-10-19T03:56:36.423Z,100475.63
2022-10-19T03:59:07.052Z,100476.14
2022-10-19T04:01:37.785Z,100475.95
2022-10-19T04:04:13.054Z,100475.90
2022-10-19T04:06:43.312Z,100474.80
2022-10-19T04:09:13.367Z,100476.36
2022-10-19T04:11:42.037Z,100470.97
2022-10-19T04:14:19.133Z,100470.70
2022-10-19T04:16:54.797Z,100475.95
2022-10-19T04:19:22.325Z,100473.69
2022-10-19T04:21:49.895Z,100470.65
2022-10-19T04:24:18.813Z,100470.17
2022-10-19T04:26:51.580Z,100472.69
2022-10-19T04:29:22.825Z,100474.63
2022-10-19T04:31:53.217Z,100473.73
2022-10-19T04:34:20.812Z,100475.60
2022-10-19T04:36:48.432Z,100470.86
2022-10-19T04:39:16.098Z,100472.68
2022-10-19T04:41:43.622Z,100475.77
2022-10-19T04:44:11.167Z,100474.42
2022-10-19T04:46:38.828Z,100467.73
2022-10-19T04:49:06.996Z,100461.73
2022-10-19T04:51:34.894Z,100454.72
2022-10-19T04:54:03.961Z,100455.45
2022-10-19T04:56:32.314Z,100449.77
2022-10-19T04:59:01.058Z,100457.27
2022-10-19T05:01:30.653Z,100458.30
2022-10-19T05:04:01.005Z,100451.98
2022-10-19T05:06:30.377Z,100459.04
2022-10-19T05:08:59.339Z,100450.67
2022-10-19T05:11:27.021Z,100452.36
2022-10-19T05:13:56.306Z,100447.86
2022-10-19T05:16:24.415Z,100447.36
2022-10-19T05:18:58.527Z,100443.87
2022-10-19T05:21:29.698Z,100449.13
2022-10-19T05:23:57.591Z,100446.90
2022-10-19T05:26:27.775Z,100448.30
2022-10-19T05:29:00.320Z,100451.44
2022-10-19T05:31:30.302Z,100454.79
2022-10-19T05:33:59.029Z,100453.89
2022-10-19T05:36:32.254Z,100458.02
2022-10-19T05:39:02.562Z,100455.21
2022-10-19T05:41:30.125Z,100460.08
2022-10-19T05:43:59.816Z,100457.09
2022-10-19T05:46:30.043Z,100460.06
2022-10-19T05:48:59.037Z,100463.64
2022-10-19T05:51:28.252Z,100464.20
2022-10-19T05:53:56.816Z,100464.58
2022-10-19T05:56:27.738Z,100457.45
2022-10-19T05:58:57.197Z,100466.61
2022-10-19T06:01:25.989Z,100466.66
2022-10-19T06:04:00.787Z,100467.96
2022-10-19T06:06:31.529Z,100469.31
2022-10-19T06:09:00.424Z,100470.41
2022-10-19T06:11:36.413Z,100471.52
2022-10-19T06:14:07.416Z,100472.73
2022-10-19T06:16:35.677Z,100478.02
2022-10-19T06:19:05.210Z,100479.88
2022-10-19T06:21:34.069Z,100479.67
2022-10-19T06:24:05.618Z,100485.06
2022-10-19T06:26:35.877Z,100482.95
2022-10-19T06:29:04.461Z,100483.96
2022-10-19T06:31:34.686Z,100490.06
2022-10-19T06:34:02.878Z,100497.85
2022-10-19T06:36:32.531Z,100499.91
2022-10-19T06:39:01.515Z,100505.36
2022-10-19T06:41:31.037Z,100507.71
2022-10-19T06:44:01.524Z,100506.45
2022-10-19T06:46:29.137Z,100511.44
2022-10-19T06:49:01.717Z,100513.92
2022-10-19T06:51:31.908Z,100516.39
2022-10-19T06:53:59.701Z,100521.86
2022-10-19T06:56:27.617Z,100525.92
2022-10-19T06:58:56.583Z,100529.05
2022-10-19T07:01:25.033Z,100528.54
2022-10-19T07:03:53.021Z,100535.14
2022-10-19T07:06:21.341Z,100537.58
2022-10-19T07:08:49.658Z,100537.34
2022-10-19T07:11:19.718Z,100535.52
2022-10-19T07:13:47.572Z,100541.02
2022-10-19T07:16:20.564Z,100547.58
2022-10-19T07:18:51.446Z,100546.83
2022-10-19T07:21:21.474Z,100553.10
2022-10-19T07:23:49.484Z,100555.59
2022-10-19T07:26:23.236Z,100557.10
2022-10-19T07:28:51.461Z,100559.06
2022-10-19T07:31:21.083Z,100564.48
2022-10-19T07:34:07.553Z,100568.06
2022-10-19T07:36:36.803Z,100566.19
2022-10-19T07:39:06.452Z,100572.23
2022-10-19T07:41:37.260Z,100576.92
2022-10-19T07:44:06.595Z,100583.27
2022-10-19T07:46:37.127Z,100588.75
2022-10-19T07:49:09.676Z,100592.05
2022-10-19T07:51:38.482Z,100593.77
2022-10-19T07:54:06.373Z,100595.60
2022-10-19T07:56:34.566Z,100592.76
2022-10-19T07:59:02.752Z,100596.71
2022-10-19T08:01:33.321Z,100601.77
2022-10-19T08:06:49.499Z,100616.11
2022-10-19T08:09:40.145Z,100619.10
2022-10-19T08:12:05.973Z,100613.83
2022-10-19T08:14:33.876Z,100620.08
2022-10-19T08:17:01.784Z,100618.34
2022-10-19T08:19:29.591Z,100625.39
2022-10-19T08:21:57.122Z,100627.97
2022-10-19T08:24:24.656Z,100628.48
2022-10-19T08:26:52.199Z,100620.08
2022-10-19T08:29:21.022Z,100631.33
2022-10-19T08:31:49.535Z,100638.01
2022-10-19T08:34:19.685Z,100638.40
2022-10-19T08:36:48.410Z,100643.64
2022-10-19T08:39:17.711Z,100646.33
2022-10-19T08:42:05.808Z,100648.64
2022-10-19T08:44:57.749Z,100654.73
2022-10-19T08:47:41.237Z,100660.10
2022-10-19T08:50:20.182Z,100664.43
2022-10-19T08:52:57.703Z,100652.98
2022-10-19T08:55:36.867Z,100657.05
2022-10-19T08:58:23.992Z,100661.84
2022-10-19T09:01:10.685Z,100658.85
2022-10-19T09:03:54.898Z,100658.27
2022-10-19T09:06:44.680Z,100660.39
2022-10-19T09:09:13.983Z,100664.00
2022-10-19T09:11:48.721Z,100669.50
2022-10-19T09:14:22.789Z,100677.60
2022-10-19T09:16:51.538Z,100679.35
2022-10-19T09:19:26.265Z,100682.48
2022-10-19T09:23:18.531Z,100683.84
2022-10-19T09:25:48.268Z,100692.07
2022-10-19T09:28:39.782Z,100689.16
2022-10-19T09:31:16.630Z,100692.56
2022-10-19T09:33:52.363Z,100695.71
2022-10-19T09:36:22.853Z,100701.13
2022-10-19T09:38:55.323Z,100693.08
2022-10-19T09:41:24.390Z,100687.77
2022-10-19T09:43:54.571Z,100694.77
2022-10-19T09:49:12.847Z,100691.02
2022-10-19T09:51:51.757Z,100693.94
2022-10-19T09:54:26.258Z,100691.19
2022-10-19T09:56:57.071Z,100700.48
2022-10-19T09:59:30.133Z,100698.94
2022-10-19T10:02:30.784Z,100695.79
2022-10-19T10:05:14.938Z,100700.34
2022-10-19T10:07:42.536Z,100702.48
2022-10-19T10:10:37.307Z,100711.65
2022-10-19T10:13:07.848Z,100719.45
2022-10-19T10:15:43.134Z,100714.55
2022-10-19T10:18:15.919Z,100716.59
2022-10-19T10:21:02.582Z,100722.79
2022-10-19T10:23:36.043Z,100723.52
2022-10-19T10:26:12.038Z,100740.42
2022-10-19T10:28:47.030Z,100736.95
2022-10-19T10:31:16.776Z,100741.61
2022-10-19T10:36:24.536Z,100740.86
2022-10-19T10:38:58.887Z,100740.16
2022-10-19T10:41:29.569Z,100740.71
2022-10-19T10:44:03.889Z,100739.70
2022-10-19T10:46:36.335Z,100743.98
2022-10-19T10:49:06.695Z,100740.63
2022-10-19T10:51:37.197Z,100738.33
2022-10-19T10:54:23.553Z,100747.02
2022-10-19T11:00:12.219Z,100756.88
2022-10-19T11:03:04.602Z,100775.02
2022-10-19T11:05:41.798Z,100778.48
2022-10-19T11:08:12.358Z,100779.27
2022-10-19T11:10:59.427Z,100782.60
2022-10-19T11:13:48.701Z,100783.55
2022-10-19T11:16:19.578Z,100773.43
2022-10-19T11:22:14.802Z,100782.54
2022-10-19T11:24:59.670Z,100769.88
2022-10-19T11:27:50.732Z,100775.90
2022-10-19T11:30:23.104Z,100769.83
2022-10-19T11:33:09.704Z,100776.16
2022-10-19T11:35:53.221Z,100779.88
2022-10-19T11:38:36.846Z,100768.64
2022-10-19T11:41:22.586Z,100774.99
2022-10-19T11:44:02.755Z,100775.51
2022-10-19T11:46:36.447Z,100780.09
2022-10-19T11:49:20.187Z,100779.17
2022-10-19T11:52:09.844Z,100774.73
2022-10-19T11:55:00.737Z,100779.49
2022-10-19T11:57:33.980Z,100794.65
2022-10-19T12:00:39.278Z,100794.67
2022-10-19T12:03:22.893Z,100812.42
2022-10-19T12:06:09.248Z,100792.50
2022-10-19T12:08:40.626Z,100796.46
2022-10-19T12:11:28.717Z,100800.80
2022-10-19T12:14:03.509Z,100794.41
2022-10-19T12:16:37.816Z,100796.84
2022-10-19T12:19:12.959Z,100802.88
2022-10-19T12:21:43.187Z,100816.43
2022-10-19T12:24:15.671Z,100811.94
2022-10-19T12:26:45.500Z,100808.73
2022-10-19T12:29:19.850Z,100798.14
2022-10-19T12:31:48.953Z,100797.53
2022-10-19T12:34:38.725Z,100806.66
2022-10-19T12:37:27.132Z,100809.95
2022-10-19T12:40:23.331Z,100805.09
2022-10-19T12:43:03.220Z,100806.02
2022-10-19T12:45:39.401Z,100800.71
2022-10-19T12:48:12.912Z,100798.36
2022-10-19T12:50:59.663Z,100808.52
2022-10-19T12:53:32.675Z,100799.56
2022-10-19T12:56:05.551Z,100804.30
2022-10-19T12:58:49.292Z,100809.26
2022-10-19T13:01:32.825Z,100811.34
2022-10-19T13:04:22.493Z,100819.77
2022-10-19T13:07:00.122Z,100814.48
2022-10-19T13:09:35.005Z,100814.45
2022-10-19T13:12:21.910Z,100818.92
2022-10-19T13:14:51.023Z,100826.57
2022-10-19T13:17:34.299Z,100824.13
2022-10-19T13:20:18.242Z,100834.79
2022-10-19T13:23:13.018Z,100837.83
2022-10-19T13:25:41.469Z,100841.46
2022-10-19T13:28:15.231Z,100829.52
2022-10-19T13:30:58.368Z,100833.16
2022-10-19T13:33:34.837Z,100827.29
2022-10-19T13:36:05.180Z,100839.10
2022-10-19T13:41:07.046Z,100850.11
2022-10-19T13:44:07.450Z,100845.89
2022-10-19T13:46:47.718Z,100852.27
2022-10-19T13:49:34.293Z,100843.06
2022-10-19T13:52:23.684Z,100859.69
2022-10-19T13:55:13.250Z,100845.60
2022-10-19T13:58:02.990Z,100842.62
2022-10-19T14:00:51.973Z,100848.45
2022-10-19T14:03:36.758Z,100857.27
2022-10-19T14:06:10.093Z,100860.62
2022-10-19T14:09:06.097Z,100858.80
2022-10-19T14:11:41.059Z,100867.68
2022-10-19T14:14:11.556Z,100865.94
2022-10-19T14:16:56.087Z,100870.04
2022-10-19T14:19:42.347Z,100874.61
2022-10-19T14:22:26.087Z,100869.75
2022-10-19T14:25:01.257Z,100876.81
2022-10-19T14:27:30.429Z,100875.67
2022-10-19T14:29:58.260Z,100877.94
2022-10-19T14:32:28.631Z,100885.73
2022-10-19T14:37:33.169Z,100885.04
2022-10-19T14:40:24.807Z,100886.78
2022-10-19T14:42:57.758Z,100890.91
2022-10-19T14:45:28.630Z,100891.30
2022-10-19T14:48:03.612Z,100894.31
2022-10-19T14:50:42.632Z,100894.64
2022-10-19T14:53:26.897Z,100902.34
2022-10-19T14:55:58.348Z,100899.21
2022-10-19T14:58:28.667Z,100897.30
2022-10-19T15:00:56.528Z,100900.61
2022-10-19T15:03:28.381Z,100899.90
2022-10-19T15:06:01.562Z,100896.15
2022-10-19T15:08:42.439Z,100897.75
2022-10-19T15:11:31.113Z,100898.55
2022-10-19T15:14:08.882Z,100903.93
2022-10-19T15:16:39.126Z,100910.27
2022-10-19T15:19:16.413Z,100916.39
2022-10-19T15:21:45.203Z,100914.85
2022-10-19T15:24:25.990Z,100915.36
2022-10-19T15:27:06.524Z,100924.67
2022-10-19T15:29:37.541Z,100927.41
2022-10-19T15:32:25.349Z,100928.75
2022-10-19T15:34:52.944Z,100923.29
2022-10-19T15:37:23.455Z,100931.52
2022-10-19T15:39:52.645Z,100927.21
2022-10-19T15:42:40.872Z,100932.57
2022-10-19T15:45:31.337Z,100937.67
2022-10-19T15:48:14.960Z,100943.96
2022-10-19T15:50:47.729Z,100947.86
2022-10-19T15:53:20.482Z,100945.59
2022-10-19T15:55:49.463Z,100952.79
2022-10-19T15:58:17.973Z,100951.90
2022-10-19T16:00:45.520Z,100955.36
2022-10-19T16:03:13.068Z,100957.38
2022-10-19T16:05:40.610Z,100957.82
2022-10-19T16:08:11.646Z,100961.95
2022-10-19T16:10:40.083Z,100964.48
2022-10-19T16:13:07.584Z,100966.52
2022-10-19T16:15:35.106Z,100966.61
2022-10-19T16:18:02.629Z,100970.85
2022-10-19T16:20:30.809Z,100974.27
2022-10-19T16:22:58.367Z,100986.45
2022-10-19T16:25:26.037Z,100990.78
2022-10-19T16:27:53.966Z,100989.95
2022-10-19T16:30:21.481Z,100991.48
2022-10-19T16:32:49.779Z,100990.82
2022-10-19T16:35:17.316Z,100992.42
2022-10-19T16:37:45.358Z,100994.15
2022-10-19T16:40:12.924Z,100991.08
2022-10-19T16:42:40.460Z,100993.89
2022-10-19T16:45:09.141Z,100999.40
2022-10-19T16:47:36.666Z,100995.33
2022-10-19T16:50:05.808Z,100997.73
2022-10-19T16:52:33.837Z,100994.95
2022-10-19T16:55:02.282Z,101000.95
2022-10-19T16:57:29.901Z,101004.25
2022-10-19T16:59:57.420Z,101003.05
2022-10-19T17:02:31.696Z,101001.95
2022-10-19T17:04:59.325Z,101001.50
2022-10-19T17:07:26.867Z,101002.83
2022-10-19T17:09:54.985Z,101003.15
2022-10-19T17:12:22.734Z,101007.73
2022-10-19T17:14:51.167Z,101010.61
2022-10-19T17:17:18.747Z,101013.52
2022-10-19T17:19:46.695Z,101017.60
2022-10-19T17:22:14.436Z,101017.13
2022-10-19T17:24:41.987Z,101025.67
2022-10-19T17:27:09.689Z,101025.55
2022-10-19T17:29:37.457Z,101028.40
2022-10-19T17:32:05.209Z,101029.58
2022-10-19T17:34:32.861Z,101032.91
2022-10-19T17:37:00.377Z,101032.89
2022-10-19T17:39:29.906Z,101037.55
2022-10-19T17:42:01.888Z,101036.24
2022-10-19T17:44:31.372Z,101034.14
2022-10-19T17:47:00.130Z,101041.00
2022-10-19T17:49:29.628Z,101045.31
2022-10-19T17:51:57.346Z,101050.58
2022-10-19T17:54:24.929Z,101052.93
2022-10-19T17:56:52.574Z,101052.31
2022-10-19T17:59:30.147Z,101056.01
2022-10-19T18:01:58.289Z,101059.82
2022-10-19T18:04:25.897Z,101062.70
2022-10-19T18:06:53.704Z,101063.67
2022-10-19T18:09:21.209Z,101068.23
2022-10-19T18:11:48.741Z,101073.83
2022-10-19T18:14:16.582Z,101077.66
2022-10-19T18:16:46.299Z,101080.77
2022-10-19T18:19:15.990Z,101076.80
2022-10-19T18:21:45.579Z,101075.34
2022-10-19T18:24:21.386Z,101081.67
2022-10-19T18:26:50.609Z,101080.39
2022-10-19T18:29:22.231Z,101084.02
2022-10-19T18:31:53.738Z,101083.95
2022-10-19T18:34:24.450Z,101087.25
2022-10-19T18:36:52.518Z,101090.42
2022-10-19T18:39:20.404Z,101090.98
2022-10-19T18:41:52.217Z,101087.70
2022-10-19T18:44:25.223Z,101089.98
2022-10-19T18:46:55.873Z,101090.98
2022-10-19T18:49:24.110Z,101089.71
2022-10-19T18:51:55.160Z,101093.39
2022-10-19T18:54:26.279Z,101095.81
2022-10-19T18:56:55.041Z,101099.19
2022-10-19T18:59:23.376Z,101095.40
2022-10-19T19:01:51.614Z,101094.59
2022-10-19T19:04:19.348Z,101095.45
2022-10-19T19:06:46.933Z,101094.73
2022-10-19T19:09:14.514Z,101098.02
2022-10-19T19:11:42.191Z,101099.81
2022-10-19T19:14:15.846Z,101107.84
2022-10-19T19:16:45.069Z,101109.52
2022-10-19T19:19:14.682Z,101113.20
2022-10-19T19:21:44.312Z,101115.86
2022-10-19T19:24:15.838Z,101121.94
2022-10-19T19:26:48.178Z,101122.11
2022-10-19T19:29:16.679Z,101118.86
2022-10-19T19:31:44.437Z,101120.39
2022-10-19T19:34:12.028Z,101126.31
2022-10-19T19:36:47.875Z,101123.21
2022-10-19T19:39:19.831Z,101124.17
2022-10-19T19:41:48.833Z,101125.34
2022-10-19T19:44:17.636Z,101125.77
2022-10-19T19:46:45.281Z,101128.86
2022-10-19T19:49:13.694Z,101127.83
2022-10-19T19:51:41.274Z,101133.84
2022-10-19T19:54:08.906Z,101138.48
2022-10-19T19:56:37.290Z,101142.41
2022-10-19T19:59:05.255Z,101146.63
2022-10-19T20:01:33.217Z,101147.81
2022-10-19T20:06:31.088Z,101154.02
2022-10-19T20:08:58.680Z,101155.94
2022-10-19T20:11:28.770Z,101152.33
2022-10-19T20:13:56.455Z,101154.59
2022-10-19T20:16:29.200Z,101150.67
2022-10-19T20:19:05.182Z,101156.45
2022-10-19T20:21:33.557Z,101164.52
2022-10-19T20:24:01.680Z,101169.66
2022-10-19T20:26:29.834Z,101175.88
2022-10-19T20:28:57.860Z,101180.24
2022-10-19T20:31:25.789Z,101180.35
2022-10-19T20:33:53.360Z,101181.23
2022-10-19T20:36:25.514Z,101181.74
2022-10-19T20:38:55.395Z,101183.17
2022-10-19T20:41:24.824Z,101190.52
2022-10-19T20:43:53.758Z,101188.39
2022-10-19T20:46:24.647Z,101190.70
2022-10-19T20:48:52.875Z,101189.64
2022-10-19T20:51:32.527Z,101189.75
2022-10-19T20:54:02.907Z,101184.53
2022-10-19T20:56:33.641Z,101187.15
2022-10-19T20:59:11.218Z,101184.64
2022-10-19T21:01:40.445Z,101184.27
2022-10-19T21:04:10.861Z,101188.71
2022-10-19T21:06:48.116Z,101189.84
2022-10-19T21:09:18.367Z,101188.95
2022-10-19T21:11:47.571Z,101193.90
2022-10-19T21:14:18.939Z,101194.16
2022-10-19T21:16:48.017Z,101198.10
2022-10-19T21:19:21.385Z,101198.44
2022-10-19T21:21:52.488Z,101194.52
2022-10-19T21:24:22.757Z,101191.76
2022-10-19T21:29:20.272Z,101191.73
2022-10-19T21:31:49.959Z,101186.86
2022-10-19T21:34:23.428Z,101180.27
2022-10-19T21:36:51.446Z,101176.70
2022-10-19T21:39:19.527Z,101179.23
2022-10-19T21:41:47.490Z,101176.80
2022-10-19T21:44:16.844Z,101178.02
2022-10-19T21:46:47.081Z,101179.62
2022-10-19T21:49:15.329Z,101178.73
2022-10-19T21:52:03.244Z,101183.73
2022-10-19T21:54:30.758Z,101184.13
2022-10-19T21:57:01.220Z,101184.07
2022-10-19T21:59:29.023Z,101186.31
2022-10-19T22:01:57.100Z,101182.29
2022-10-19T22:04:24.714Z,101178.74
2022-10-19T22:06:52.677Z,101179.21
2022-10-19T22:09:21.927Z,101179.48
2022-10-19T22:11:49.484Z,101180.20
2022-10-19T22:14:17.634Z,101185.30
2022-10-19T22:16:45.235Z,101187.41
2022-10-19T22:19:13.141Z,101184.00
2022-10-19T22:21:41.006Z,101186.07
2022-10-19T22:24:13.090Z,101185.29
2022-10-19T22:26:44.134Z,101185.98
2022-10-19T22:29:11.687Z,101190.05
2022-10-19T22:31:39.597Z,101198.02
2022-10-19T22:34:10.568Z,101197.30
2022-10-19T22:36:38.577Z,101201.67
2022-10-19T22:39:06.910Z,101208.43
2022-10-19T22:41:34.520Z,101204.67
2022-10-19T22:44:02.306Z,101204.05
2022-10-19T22:46:29.998Z,101201.30
2022-10-19T22:48:58.272Z,101201.85
2022-10-19T22:51:26.198Z,101199.57
2022-10-19T22:53:53.807Z,101206.18
2022-10-19T22:56:21.513Z,101204.60
2022-10-19T22:58:49.185Z,101203.31
2022-10-19T23:01:17.164Z,101199.23
2022-10-19T23:03:45.242Z,101197.52
2022-10-19T23:06:15.037Z,101197.23
2022-10-19T23:08:44.449Z,101201.94
2022-10-19T23:11:12.742Z,101208.94
2022-10-19T23:13:41.198Z,101208.79
2022-10-19T23:16:09.429Z,101216.11
2022-10-19T23:18:39.574Z,101220.83
2022-10-19T23:21:10.733Z,101222.50
2022-10-19T23:23:39.333Z,101221.64
2022-10-19T23:26:10.630Z,101221.56
2022-10-19T23:28:40.636Z,101222.85
2022-10-19T23:31:20.309Z,101227.55
2022-10-19T23:33:47.992Z,101228.66
2022-10-19T23:36:16.994Z,101232.38
2022-10-19T23:38:46.291Z,101239.35
2022-10-19T23:41:14.969Z,101242.36
2022-10-19T23:43:42.855Z,101237.42
2022-10-19T23:46:11.123Z,101238.31
2022-10-19T23:48:39.724Z,101242.22
2022-10-19T23:51:13.243Z,101247.68
2022-10-19T23:53:43.627Z,101248.64
2022-10-19T23:56:28.106Z,101252.94
2022-10-19T23:58:56.675Z,101256.90
